Time;durP1;ratioP1;P1;durP2;ratioP2;P2;SDS_P1;SDS_P2;PMS_P1;PMS_P2;Temp;Humidity;BMP_temperature;BMP_pressure;BME280_temperature;BME280_humidity;BME280_pressure;Samples;Min_cycle;Max_cycle;Signal;HPM_P1;HPM_P2
2022/01/21 00:01:56;;;;;;;12.55;6.15;;;;;;;;;;5012409;28;20038;-72
2022/01/21 00:04:23;;;;;;;7.88;5.43;;;;;;;;;;5013815;28;20489;-72
2022/01/21 00:06:52;;;;;;;5.60;4.70;;;;;;;;;;5013903;28;20514;-71
2022/01/21 00:09:19;;;;;;;6.18;4.65;;;;;;;;;;5012044;28;20130;-72
2022/01/21 00:11:48;;;;;;;5.03;4.03;;;;;;;;;;5013442;28;20046;-75
2022/01/21 00:14:16;;;;;;;6.00;3.85;;;;;;;;;;5011624;28;20519;-71
2022/01/21 00:16:45;;;;;;;5.40;3.60;;;;;;;;;;5012150;28;20046;-72
2022/01/21 00:19:15;;;;;;;3.78;3.45;;;;;;;;;;5012039;28;20046;-71
2022/01/21 00:30:18;;;;;;;6.00;3.40;;;;;;;;;;4995679;28;20050;-72
2022/01/21 00:33:00;;;;;;;5.07;3.25;;;;;;;;;;5011525;28;20084;-71
2022/01/21 00:35:28;;;;;;;7.15;3.10;;;;;;;;;;5013047;28;20120;-72
2022/01/21 00:37:56;;;;;;;5.80;3.30;;;;;;;;;;5013482;28;20042;-73
2022/01/21 00:40:25;;;;;;;4.40;2.92;;;;;;;;;;5013227;28;20038;-73
2022/01/21 00:43:28;;;;;;;3.25;2.90;;;;;;;;;;5012958;28;20486;-72
2022/01/21 00:45:43;;;;;;;3.15;2.88;;;;;;;;;;5012657;28;20042;-75
2022/01/21 00:48:13;;;;;;;4.53;2.72;;;;;;;;;;5012641;28;20069;-73
2022/01/21 00:50:40;;;;;;;5.22;3.20;;;;;;;;;;5011666;28;20056;-71
2022/01/21 00:53:08;;;;;;;4.55;3.17;;;;;;;;;;5013024;28;20076;-72
2022/01/21 00:55:35;;;;;;;3.70;2.70;;;;;;;;;;5012310;28;20045;-72
2022/01/21 00:58:06;;;;;;;6.72;3.40;;;;;;;;;;5010488;28;20048;-75
2022/01/21 01:00:34;;;;;;;6.30;3.22;;;;;;;;;;4978657;28;20042;-73
2022/01/21 01:03:01;;;;;;;3.75;3.15;;;;;;;;;;5013200;28;20474;-71
2022/01/21 01:05:32;;;;;;;3.25;2.95;;;;;;;;;;5013424;28;20394;-73
2022/01/21 01:08:01;;;;;;;8.75;3.20;;;;;;;;;;5012856;28;20042;-71
2022/01/21 01:10:57;;;;;;;5.05;3.30;;;;;;;;;;4994485;28;20050;-71
2022/01/21 01:21:42;;;;;;;3.83;3.20;;;;;;;;;;5012371;28;20540;-71
2022/01/21 01:29:26;;;;;;;5.60;3.17;;;;;;;;;;5014129;28;20505;-71
2022/01/21 01:31:54;;;;;;;3.55;3.25;;;;;;;;;;5012541;28;20396;-71
2022/01/21 01:34:23;;;;;;;6.85;3.33;;;;;;;;;;5030247;28;20440;-75
2022/01/21 01:36:50;;;;;;;8.60;3.65;;;;;;;;;;5033510;28;20544;-74
2022/01/21 01:39:34;;;;;;;6.78;3.67;;;;;;;;;;5014999;28;20081;-73
2022/01/21 01:50:09;;;;;;;5.13;3.40;;;;;;;;;;5036378;28;20045;-71
2022/01/21 01:52:38;;;;;;;4.55;3.50;;;;;;;;;;5034707;28;20496;-71
2022/01/21 01:55:05;;;;;;;7.47;4.20;;;;;;;;;;5033735;28;20507;-73
2022/01/21 01:57:33;;;;;;;6.40;3.75;;;;;;;;;;5033733;28;20491;-71
2022/01/21 02:00:04;;;;;;;5.78;3.70;;;;;;;;;;5016470;28;20132;-72
2022/01/21 02:02:39;;;;;;;4.95;3.50;;;;;;;;;;5034567;28;20042;-71
2022/01/21 02:05:10;;;;;;;5.43;3.75;;;;;;;;;;5034497;28;20077;-73
2022/01/21 02:07:42;;;;;;;6.25;4.30;;;;;;;;;;5016702;28;20051;-71
2022/01/21 02:10:09;;;;;;;4.97;4.07;;;;;;;;;;5017605;28;20053;-72
2022/01/21 02:12:40;;;;;;;8.98;4.75;;;;;;;;;;5017870;28;20046;-75
2022/01/21 02:15:09;;;;;;;9.02;5.05;;;;;;;;;;5035406;28;20132;-71
2022/01/21 02:22:58;;;;;;;7.88;5.47;;;;;;;;;;5032032;28;20041;-72
2022/01/21 02:25:26;;;;;;;9.98;6.18;;;;;;;;;;5016973;28;20104;-72
2022/01/21 02:28:02;;;;;;;11.98;5.97;;;;;;;;;;5035430;28;20049;-72
2022/01/21 02:30:35;;;;;;;9.60;6.25;;;;;;;;;;5034167;28;20053;-73
2022/01/21 02:33:03;;;;;;;13.95;6.82;;;;;;;;;;5017181;28;20053;-75
2022/01/21 02:35:32;;;;;;;15.55;7.25;;;;;;;;;;5017373;28;20497;-72
2022/01/21 02:38:01;;;;;;;10.38;6.75;;;;;;;;;;5034848;28;20071;-73
2022/01/21 02:40:28;;;;;;;14.38;6.45;;;;;;;;;;5017031;28;20052;-72
2022/01/21 02:42:56;;;;;;;9.90;6.07;;;;;;;;;;5016550;28;20049;-75
2022/01/21 02:45:24;;;;;;;10.80;7.30;;;;;;;;;;5016913;28;20076;-72
2022/01/21 02:47:53;;;;;;;12.60;7.15;;;;;;;;;;4999883;28;20092;-72
2022/01/21 02:50:22;;;;;;;11.38;6.50;;;;;;;;;;5035001;28;20053;-71
2022/01/21 02:53:08;;;;;;;8.52;5.78;;;;;;;;;;5017355;28;20408;-75
2022/01/21 02:55:36;;;;;;;4.95;4.25;;;;;;;;;;5034974;28;20037;-71
2022/01/21 02:58:04;;;;;;;10.07;5.05;;;;;;;;;;5016424;28;20511;-75
2022/01/21 03:00:33;;;;;;;5.78;4.00;;;;;;;;;;5016680;28;20045;-71
2022/01/21 03:03:05;;;;;;;8.50;4.30;;;;;;;;;;5034548;28;20140;-72
2022/01/21 03:05:38;;;;;;;5.78;4.10;;;;;;;;;;5016424;28;20145;-75
2022/01/21 03:08:08;;;;;;;5.45;3.53;;;;;;;;;;5016440;28;20046;-72
2022/01/21 03:10:36;;;;;;;5.40;2.92;;;;;;;;;;5016342;28;20091;-74
2022/01/21 03:13:04;;;;;;;4.50;3.22;;;;;;;;;;5016412;28;20556;-73
2022/01/21 03:15:33;;;;;;;5.30;3.40;;;;;;;;;;5016682;28;20132;-72
2022/01/21 03:18:05;;;;;;;6.50;3.50;;;;;;;;;;5000650;28;20074;-73
2022/01/21 03:20:33;;;;;;;7.07;3.63;;;;;;;;;;5000063;28;20125;-72
2022/01/21 03:23:01;;;;;;;5.18;3.25;;;;;;;;;;5033225;28;20041;-72
2022/01/21 03:25:30;;;;;;;7.55;4.00;;;;;;;;;;5014410;28;20049;-75
2022/01/21 03:27:58;;;;;;;4.25;3.40;;;;;;;;;;5014293;28;20095;-72
2022/01/21 03:30:31;;;;;;;4.97;3.17;;;;;;;;;;5014393;28;20045;-75
2022/01/21 03:33:07;;;;;;;5.10;3.40;;;;;;;;;;5014424;28;20060;-71
2022/01/21 03:35:35;;;;;;;5.57;3.60;;;;;;;;;;5014075;28;20046;-75
2022/01/21 03:38:03;;;;;;;8.35;2.83;;;;;;;;;;5014808;28;20591;-72
2022/01/21 03:40:35;;;;;;;6.63;3.30;;;;;;;;;;5015727;28;20038;-73
2022/01/21 03:43:04;;;;;;;9.00;2.88;;;;;;;;;;5031479;28;20076;-72
2022/01/21 03:45:31;;;;;;;6.90;3.80;;;;;;;;;;5013787;28;20136;-73
2022/01/21 03:48:00;;;;;;;9.75;4.70;;;;;;;;;;5013797;28;20053;-75
2022/01/21 03:50:32;;;;;;;7.40;3.72;;;;;;;;;;5013969;28;20423;-72
2022/01/21 03:53:03;;;;;;;4.07;2.40;;;;;;;;;;5014303;28;20500;-72
2022/01/21 03:55:33;;;;;;;7.00;2.95;;;;;;;;;;5013882;28;20471;-74
2022/01/21 03:58:03;;;;;;;4.32;2.65;;;;;;;;;;4999173;28;20041;-70
2022/01/21 04:00:43;;;;;;;4.40;3.17;;;;;;;;;;5015804;28;20071;-72
2022/01/21 04:03:11;;;;;;;6.13;4.15;;;;;;;;;;5015184;28;20133;-72
2022/01/21 04:05:40;;;;;;;6.35;4.00;;;;;;;;;;4997353;28;20044;-75
2022/01/21 04:08:08;;;;;;;8.13;3.47;;;;;;;;;;5013238;28;20100;-73
2022/01/21 04:10:41;;;;;;;5.45;3.63;;;;;;;;;;5013651;28;20042;-71
2022/01/21 04:13:18;;;;;;;9.57;4.25;;;;;;;;;;5014411;28;20055;-72
2022/01/21 04:15:50;;;;;;;7.03;4.22;;;;;;;;;;5013390;28;20561;-72
2022/01/21 04:18:18;;;;;;;7.35;3.92;;;;;;;;;;5032142;28;20069;-70
2022/01/21 04:20:53;;;;;;;5.80;3.10;;;;;;;;;;5015134;28;20038;-70
2022/01/21 04:23:23;;;;;;;3.97;2.97;;;;;;;;;;5015059;28;20065;-72
2022/01/21 04:25:52;;;;;;;5.38;3.15;;;;;;;;;;5032883;28;20041;-72
2022/01/21 04:28:22;;;;;;;4.80;2.83;;;;;;;;;;5015303;28;20119;-72
2022/01/21 04:31:01;;;;;;;8.05;3.47;;;;;;;;;;5015837;28;20057;-70
2022/01/21 04:33:35;;;;;;;7.25;3.88;;;;;;;;;;5015355;28;20049;-72
2022/01/21 04:36:04;;;;;;;7.93;3.17;;;;;;;;;;4999275;28;20124;-71
2022/01/21 04:38:37;;;;;;;9.05;3.80;;;;;;;;;;5015523;28;20440;-75
2022/01/21 04:41:24;;;;;;;4.55;2.50;;;;;;;;;;5013640;28;20047;-72
2022/01/21 04:47:23;;;;;;;9.38;3.42;;;;;;;;;;5013944;28;20096;-75
2022/01/21 04:49:31;;;;;;;5.38;3.30;;;;;;;;;;5007712;28;20056;-72
2022/01/21 04:52:04;;;;;;;3.05;2.65;;;;;;;;;;5015047;28;20041;-71
2022/01/21 04:54:45;;;;;;;3.33;2.95;;;;;;;;;;5014814;28;20459;-72
2022/01/21 04:57:15;;;;;;;4.22;3.03;;;;;;;;;;5014560;28;20136;-72
2022/01/21 04:59:47;;;;;;;5.85;2.85;;;;;;;;;;5014801;28;20132;-70
2022/01/21 05:02:15;;;;;;;8.68;2.40;;;;;;;;;;5014999;28;20041;-71
2022/01/21 05:04:46;;;;;;;3.75;2.85;;;;;;;;;;4998940;28;20037;-70
2022/01/21 05:07:18;;;;;;;4.05;2.75;;;;;;;;;;5014934;28;20065;-75
2022/01/21 05:09:46;;;;;;;4.40;2.42;;;;;;;;;;5014839;28;20045;-73
2022/01/21 05:12:19;;;;;;;6.50;2.58;;;;;;;;;;5018669;28;20048;-75
2022/01/21 05:17:29;;;;;;;7.88;2.28;;;;;;;;;;5018504;28;20095;-71
2022/01/21 05:19:58;;;;;;;6.13;2.80;;;;;;;;;;5018353;28;20046;-70
2022/01/21 05:22:45;;;;;;;7.97;2.45;;;;;;;;;;5018187;28;20048;-75
2022/01/21 05:25:17;;;;;;;3.10;2.60;;;;;;;;;;5018303;28;20052;-72
2022/01/21 05:27:52;;;;;;;6.68;2.60;;;;;;;;;;5018089;28;20511;-72
2022/01/21 05:30:23;;;;;;;4.03;2.60;;;;;;;;;;5018371;28;20108;-73
2022/01/21 05:33:09;;;;;;;3.10;2.47;;;;;;;;;;5035781;28;20060;-73
2022/01/21 05:35:50;;;;;;;5.38;2.95;;;;;;;;;;5035331;28;20395;-71
2022/01/21 05:38:37;;;;;;;4.22;2.67;;;;;;;;;;5033644;28;20083;-72
2022/01/21 05:41:30;;;;;;;4.75;3.40;;;;;;;;;;5019552;28;20060;-74
2022/01/21 05:47:23;;;;;;;3.55;2.92;;;;;;;;;;5017192;28;20045;-72
2022/01/21 05:50:25;;;;;;;4.88;2.70;;;;;;;;;;4980085;28;20060;-72
2022/01/21 05:53:18;;;;;;;3.60;2.80;;;;;;;;;;5035134;28;20053;-73
2022/01/21 05:56:15;;;;;;;3.90;2.72;;;;;;;;;;5033573;28;20378;-72
2022/01/21 05:58:56;;;;;;;4.80;3.00;;;;;;;;;;5017437;28;20041;-70
2022/01/21 06:01:24;;;;;;;5.22;3.00;;;;;;;;;;5032375;28;20076;-70
2022/01/21 06:03:52;;;;;;;3.42;2.97;;;;;;;;;;4998014;28;20046;-76
2022/01/21 06:06:22;;;;;;;7.50;3.20;;;;;;;;;;5014598;28;20049;-72
2022/01/21 06:08:50;;;;;;;9.52;3.50;;;;;;;;;;4997985;28;20046;-70
2022/01/21 06:11:19;;;;;;;8.88;3.80;;;;;;;;;;5013942;28;20049;-75
2022/01/21 06:13:49;;;;;;;5.63;3.65;;;;;;;;;;5015261;28;20046;-70
2022/01/21 06:16:17;;;;;;;5.90;3.45;;;;;;;;;;4997951;28;20041;-70
2022/01/21 06:18:45;;;;;;;7.55;3.53;;;;;;;;;;5015483;28;20049;-71
2022/01/21 06:21:15;;;;;;;10.55;4.25;;;;;;;;;;5015258;28;20045;-77
2022/01/21 06:23:44;;;;;;;13.95;5.18;;;;;;;;;;5025101;28;20415;-73
2022/01/21 06:26:11;;;;;;;7.97;4.40;;;;;;;;;;5034710;28;20073;-77
2022/01/21 06:28:39;;;;;;;5.63;3.53;;;;;;;;;;5033849;28;20449;-72
2022/01/21 06:31:07;;;;;;;6.80;3.50;;;;;;;;;;5033500;28;20060;-73
2022/01/21 06:33:34;;;;;;;7.22;3.83;;;;;;;;;;5035063;28;20038;-73
2022/01/21 06:36:03;;;;;;;5.50;3.55;;;;;;;;;;5033444;28;20052;-77
2022/01/21 06:38:30;;;;;;;7.40;3.63;;;;;;;;;;5033093;28;20042;-72
2022/01/21 06:41:03;;;;;;;10.88;5.22;;;;;;;;;;5034603;28;20049;-69
2022/01/21 06:43:31;;;;;;;14.88;6.60;;;;;;;;;;5035291;28;20051;-70
2022/01/21 06:46:02;;;;;;;10.88;5.70;;;;;;;;;;5017464;28;20049;-69
2022/01/21 06:48:31;;;;;;;17.58;6.65;;;;;;;;;;5034931;28;20106;-72
2022/01/21 06:50:59;;;;;;;12.07;6.95;;;;;;;;;;5034613;28;20073;-77
2022/01/21 06:53:32;;;;;;;15.00;7.63;;;;;;;;;;5033158;28;20045;-77
2022/01/21 06:56:01;;;;;;;17.48;8.05;;;;;;;;;;5034416;28;20100;-74
2022/01/21 06:58:28;;;;;;;18.55;8.57;;;;;;;;;;5016270;28;20408;-76
2022/01/21 07:00:57;;;;;;;17.13;9.00;;;;;;;;;;5016433;28;20136;-73
2022/01/21 07:03:24;;;;;;;16.80;8.77;;;;;;;;;;5034285;28;20117;-73
2022/01/21 07:05:52;;;;;;;18.30;8.50;;;;;;;;;;5034392;28;20042;-71
2022/01/21 07:08:20;;;;;;;16.85;7.20;;;;;;;;;;5015223;28;20046;-74
2022/01/21 07:10:48;;;;;;;14.18;6.68;;;;;;;;;;5033858;28;20042;-73
2022/01/21 07:13:17;;;;;;;19.08;6.70;;;;;;;;;;5016790;28;20077;-74
2022/01/21 07:15:44;;;;;;;12.48;6.30;;;;;;;;;;5016170;28;20132;-73
2022/01/21 07:18:13;;;;;;;16.20;6.18;;;;;;;;;;5034062;28;20072;-74
2022/01/21 07:20:40;;;;;;;11.15;5.97;;;;;;;;;;5033799;28;20042;-74
2022/01/21 07:23:09;;;;;;;14.82;5.47;;;;;;;;;;5033732;28;20042;-78
2022/01/21 07:25:37;;;;;;;9.05;4.18;;;;;;;;;;5033732;28;20072;-73
2022/01/21 07:28:05;;;;;;;14.85;4.30;;;;;;;;;;5016089;28;20079;-73
2022/01/21 07:30:33;;;;;;;15.68;4.65;;;;;;;;;;5033727;28;20068;-78
2022/01/21 07:33:04;;;;;;;7.70;4.20;;;;;;;;;;5033080;28;20037;-74
2022/01/21 07:35:34;;;;;;;12.10;4.03;;;;;;;;;;5033544;28;20448;-78
2022/01/21 07:38:11;;;;;;;9.93;5.07;;;;;;;;;;5034175;28;20037;-71
2022/01/21 07:40:40;;;;;;;14.00;6.22;;;;;;;;;;5033555;28;20584;-74
2022/01/21 07:43:08;;;;;;;14.43;6.55;;;;;;;;;;5016141;28;20041;-73
2022/01/21 07:45:36;;;;;;;12.60;6.68;;;;;;;;;;5033777;28;20120;-78
2022/01/21 07:48:06;;;;;;;11.65;6.55;;;;;;;;;;5015736;28;20488;-73
2022/01/21 07:50:34;;;;;;;12.90;8.13;;;;;;;;;;5033329;28;20052;-74
2022/01/21 07:53:03;;;;;;;16.83;10.25;;;;;;;;;;5033346;28;20034;-74
2022/01/21 07:55:30;;;;;;;18.50;9.30;;;;;;;;;;5033296;28;20119;-71
2022/01/21 07:58:00;;;;;;;14.93;8.73;;;;;;;;;;5033164;28;20045;-74
2022/01/21 08:00:28;;;;;;;8.95;6.60;;;;;;;;;;5015931;28;20038;-74
2022/01/21 08:02:56;;;;;;;12.40;6.40;;;;;;;;;;5033629;28;20390;-71
2022/01/21 08:05:31;;;;;;;12.60;5.65;;;;;;;;;;5015583;28;20390;-71
2022/01/21 08:08:01;;;;;;;11.35;6.97;;;;;;;;;;5033316;28;20091;-78
2022/01/21 08:10:31;;;;;;;13.52;7.25;;;;;;;;;;5032767;28;20034;-79
2022/01/21 08:13:00;;;;;;;11.90;7.60;;;;;;;;;;5015564;28;20121;-71
2022/01/21 08:15:29;;;;;;;12.85;7.43;;;;;;;;;;5032955;28;20049;-74
2022/01/21 08:17:57;;;;;;;13.38;6.57;;;;;;;;;;5033069;28;20408;-74
2022/01/21 08:20:24;;;;;;;11.10;6.22;;;;;;;;;;5033281;28;20472;-76
2022/01/21 08:22:55;;;;;;;15.00;6.20;;;;;;;;;;5014788;28;20048;-79
2022/01/21 08:25:25;;;;;;;6.68;4.53;;;;;;;;;;5032892;28;20041;-75
2022/01/21 08:27:53;;;;;;;6.30;4.57;;;;;;;;;;5032849;28;20124;-79
2022/01/21 08:30:20;;;;;;;8.95;5.43;;;;;;;;;;5032836;28;20455;-72
2022/01/21 08:32:48;;;;;;;10.73;6.32;;;;;;;;;;5032801;28;20118;-77
2022/01/21 08:35:17;;;;;;;11.13;4.38;;;;;;;;;;5032216;28;20140;-72
2022/01/21 08:37:44;;;;;;;9.93;4.28;;;;;;;;;;5032596;28;20042;-77
2022/01/21 08:40:12;;;;;;;5.50;3.50;;;;;;;;;;5032790;28;20044;-69
2022/01/21 08:42:40;;;;;;;5.97;3.88;;;;;;;;;;5032676;28;20111;-79
2022/01/21 08:45:07;;;;;;;7.78;4.10;;;;;;;;;;5032791;28;20444;-72
2022/01/21 08:47:35;;;;;;;6.28;3.90;;;;;;;;;;5032683;28;20053;-75
2022/01/21 08:50:07;;;;;;;5.90;3.13;;;;;;;;;;5032994;28;20128;-80
2022/01/21 08:52:37;;;;;;;6.80;2.60;;;;;;;;;;5032588;28;20081;-72
2022/01/21 08:55:07;;;;;;;6.00;2.90;;;;;;;;;;5032276;28;20128;-72
2022/01/21 08:57:39;;;;;;;4.55;2.40;;;;;;;;;;5032222;28;20373;-77
2022/01/21 09:00:08;;;;;;;4.88;2.40;;;;;;;;;;5014389;28;20072;-75
2022/01/21 09:02:36;;;;;;;5.88;2.88;;;;;;;;;;5014561;28;20038;-79
2022/01/21 09:05:04;;;;;;;5.88;2.63;;;;;;;;;;5032548;28;20468;-75
2022/01/21 09:07:35;;;;;;;3.38;2.20;;;;;;;;;;5032550;28;20076;-79
2022/01/21 09:10:03;;;;;;;4.63;2.65;;;;;;;;;;5032109;28;20042;-79
2022/01/21 09:12:31;;;;;;;5.90;2.30;;;;;;;;;;5032352;28;20046;-72
2022/01/21 09:15:00;;;;;;;7.55;2.55;;;;;;;;;;5032167;28;20060;-72
2022/01/21 09:17:27;;;;;;;3.38;2.50;;;;;;;;;;5014892;28;20044;-72
2022/01/21 09:19:56;;;;;;;6.05;3.33;;;;;;;;;;5032194;28;20493;-77
2022/01/21 09:22:23;;;;;;;6.10;2.78;;;;;;;;;;5014643;28;20044;-73
2022/01/21 09:24:51;;;;;;;8.20;3.10;;;;;;;;;;5032355;28;20493;-77
2022/01/21 09:27:19;;;;;;;6.25;3.33;;;;;;;;;;5031987;28;20416;-77
2022/01/21 09:29:48;;;;;;;5.38;3.22;;;;;;;;;;5032246;28;20041;-72
2022/01/21 09:32:17;;;;;;;9.05;3.60;;;;;;;;;;5032315;28;20042;-75
2022/01/21 09:34:45;;;;;;;6.68;3.53;;;;;;;;;;5031780;28;20053;-76
2022/01/21 09:37:13;;;;;;;5.68;3.30;;;;;;;;;;5032186;28;20049;-76
2022/01/21 09:39:41;;;;;;;4.90;3.00;;;;;;;;;;5032244;28;20124;-76
2022/01/21 09:42:08;;;;;;;7.75;3.00;;;;;;;;;;5032196;28;20044;-69
2022/01/21 09:44:36;;;;;;;6.15;2.60;;;;;;;;;;5032028;28;20048;-69
2022/01/21 09:47:04;;;;;;;4.03;2.95;;;;;;;;;;5014276;28;20126;-70
2022/01/21 09:49:34;;;;;;;4.85;2.47;;;;;;;;;;5032068;28;20680;-70
2022/01/21 09:52:04;;;;;;;5.53;1.95;;;;;;;;;;5014581;28;20124;-73
2022/01/21 09:54:39;;;;;;;6.03;2.60;;;;;;;;;;5031590;28;20049;-70
2022/01/21 09:57:07;;;;;;;5.15;2.65;;;;;;;;;;5033997;28;20069;-78
2022/01/21 09:59:39;;;;;;;2.50;1.90;;;;;;;;;;5035739;28;20060;-74
2022/01/21 10:02:09;;;;;;;5.22;2.33;;;;;;;;;;5035514;28;20438;-71
2022/01/21 10:04:42;;;;;;;5.22;2.40;;;;;;;;;;5018312;28;20551;-71
2022/01/21 10:07:14;;;;;;;7.22;2.40;;;;;;;;;;5035539;28;20073;-74
2022/01/21 10:09:46;;;;;;;5.03;3.00;;;;;;;;;;5035637;28;20038;-74
2022/01/21 10:12:13;;;;;;;6.50;2.67;;;;;;;;;;5035161;28;20076;-78
2022/01/21 10:14:46;;;;;;;2.78;2.40;;;;;;;;;;5031823;23;20050;-74
2022/01/21 10:17:14;;;;;;;3.55;2.28;;;;;;;;;;5015779;28;20485;-71
2022/01/21 10:19:51;;;;;;;3.47;2.20;;;;;;;;;;5015771;28;20523;-71
2022/01/21 10:22:25;;;;;;;5.45;2.30;;;;;;;;;;5015785;28;20515;-71
2022/01/21 10:24:54;;;;;;;4.65;2.47;;;;;;;;;;5015831;28;20048;-74
2022/01/21 10:27:39;;;;;;;5.60;1.92;;;;;;;;;;5015368;28;20052;-75
2022/01/21 10:30:28;;;;;;;4.72;1.80;;;;;;;;;;5000334;28;20038;-73
2022/01/21 10:32:56;;;;;;;5.05;1.98;;;;;;;;;;5015204;28;20041;-73
2022/01/21 10:35:33;;;;;;;4.70;2.20;;;;;;;;;;4998358;28;20439;-79
2022/01/21 10:38:23;;;;;;;3.33;1.85;;;;;;;;;;5015637;28;20057;-75
2022/01/21 10:40:54;;;;;;;6.28;1.83;;;;;;;;;;5015439;28;20516;-79
2022/01/21 10:43:21;;;;;;;6.28;2.20;;;;;;;;;;5015691;28;20041;-71
2022/01/21 10:45:57;;;;;;;6.93;2.03;;;;;;;;;;5015517;28;20034;-75
2022/01/21 10:48:27;;;;;;;4.47;2.10;;;;;;;;;;5015166;28;20129;-74
2022/01/21 10:51:13;;;;;;;5.32;2.30;;;;;;;;;;4997727;28;20509;-74
2022/01/21 10:53:43;;;;;;;5.50;2.28;;;;;;;;;;5015149;28;20050;-74
2022/01/21 10:56:16;;;;;;;5.13;2.10;;;;;;;;;;5015396;28;20044;-79
2022/01/21 10:58:50;;;;;;;6.10;2.00;;;;;;;;;;5014833;28;20409;-71
2022/01/21 11:01:24;;;;;;;4.68;1.75;;;;;;;;;;5015087;28;20054;-74
2022/01/21 11:03:53;;;;;;;;;;;;;;;;;;5015742;28;20041;-74
2022/01/21 11:06:25;;;;;;;2.33;1.80;;;;;;;;;;5015000;28;19968;-74
2022/01/21 11:09:13;;;;;;;5.35;1.77;;;;;;;;;;5014287;28;20041;-79
2022/01/21 11:11:43;;;;;;;3.45;1.60;;;;;;;;;;5014546;28;20120;-75
2022/01/21 11:14:13;;;;;;;2.35;1.55;;;;;;;;;;5015131;28;20490;-70
2022/01/21 11:16:43;;;;;;;3.88;1.80;;;;;;;;;;5014614;28;20121;-73
2022/01/21 11:19:35;;;;;;;2.78;1.10;;;;;;;;;;5014809;28;20073;-74
2022/01/21 11:22:04;;;;;;;3.73;1.30;;;;;;;;;;5014458;28;20069;-78
2022/01/21 11:24:33;;;;;;;1.88;1.08;;;;;;;;;;5014586;28;20112;-75
2022/01/21 11:27:05;;;;;;;2.70;1.20;;;;;;;;;;5013013;28;20401;-71
2022/01/21 11:29:33;;;;;;;2.83;1.60;;;;;;;;;;5014788;28;20132;-79
2022/01/21 11:32:05;;;;;;;14.88;1.80;;;;;;;;;;5014770;28;20046;-71
2022/01/21 11:34:33;;;;;;;3.75;1.13;;;;;;;;;;5014068;28;20059;-74
2022/01/21 11:37:02;;;;;;;4.10;1.15;;;;;;;;;;5014417;28;20044;-73
2022/01/21 11:39:32;;;;;;;3.90;1.45;;;;;;;;;;5014529;28;20409;-71
2022/01/21 11:42:01;;;;;;;3.38;1.38;;;;;;;;;;5014423;28;20122;-71
2022/01/21 11:44:30;;;;;;;5.38;1.70;;;;;;;;;;5014645;28;20044;-74
2022/01/21 11:49:32;;;;;;;1.63;1.15;;;;;;;;;;5014244;28;20049;-71
2022/01/21 11:52:12;;;;;;;4.30;1.40;;;;;;;;;;5014320;28;20096;-74
2022/01/21 11:54:40;;;;;;;3.13;1.40;;;;;;;;;;5014216;28;20062;-74
2022/01/21 11:57:10;;;;;;;2.25;1.25;;;;;;;;;;5013966;28;20038;-75
2022/01/21 12:02:21;;;;;;;2.70;1.30;;;;;;;;;;5013392;28;20045;-74
2022/01/21 12:04:57;;;;;;;1.45;0.93;;;;;;;;;;5013921;28;20048;-79
2022/01/21 12:07:33;;;;;;;1.27;0.80;;;;;;;;;;4996066;28;20488;-74
2022/01/21 12:10:04;;;;;;;2.55;0.95;;;;;;;;;;5013660;28;20129;-71
2022/01/21 12:12:48;;;;;;;3.03;2.58;;;;;;;;;;5013211;28;20060;-74
2022/01/21 12:20:47;;;;;;;1.58;1.30;;;;;;;;;;4995755;28;20185;-74
2022/01/21 12:23:16;;;;;;;4.00;2.33;;;;;;;;;;5012888;28;20041;-78
2022/01/21 12:26:06;;;;;;;4.53;1.52;;;;;;;;;;5013398;28;20411;-74
2022/01/21 12:28:39;;;;;;;1.52;1.10;;;;;;;;;;5004358;28;20145;-74
2022/01/21 12:31:10;;;;;;;3.55;1.30;;;;;;;;;;5013141;28;20045;-74
2022/01/21 12:34:13;;;;;;;2.80;0.90;;;;;;;;;;4985121;28;20408;-79
2022/01/21 12:36:58;;;;;;;2.22;1.23;;;;;;;;;;5012431;28;20470;-75
2022/01/21 12:39:35;;;;;;;0.82;0.70;;;;;;;;;;5013821;28;20090;-71
2022/01/21 12:42:31;;;;;;;1.95;0.90;;;;;;;;;;5013354;28;20038;-74
2022/01/21 12:45:08;;;;;;;1.10;0.75;;;;;;;;;;5011622;28;20127;-75
2022/01/21 12:47:40;;;;;;;1.48;0.90;;;;;;;;;;5011611;28;20578;-73
2022/01/21 12:50:20;;;;;;;0.98;0.90;;;;;;;;;;5012767;28;20124;-73
2022/01/21 12:53:22;;;;;;;1.33;1.00;;;;;;;;;;5012969;28;20101;-74
2022/01/21 12:55:59;;;;;;;1.00;0.90;;;;;;;;;;5012382;28;20046;-78
2022/01/21 12:58:31;;;;;;;1.85;1.08;;;;;;;;;;4993081;28;20468;-78
2022/01/21 13:01:00;;;;;;;2.05;1.02;;;;;;;;;;5008242;28;20089;-75
2022/01/21 13:03:43;;;;;;;2.38;1.00;;;;;;;;;;5012038;28;20030;-74
2022/01/21 13:06:14;;;;;;;0.88;0.80;;;;;;;;;;5009659;28;20041;-71
2022/01/21 13:09:01;;;;;;;1.00;0.82;;;;;;;;;;5012244;28;20042;-74
2022/01/21 13:11:30;;;;;;;2.55;1.02;;;;;;;;;;5009281;28;20038;-78
2022/01/21 13:17:09;;;;;;;3.63;0.75;;;;;;;;;;5011263;28;20492;-71
2022/01/21 13:19:47;;;;;;;2.67;0.80;;;;;;;;;;5004289;28;20069;-74
2022/01/21 13:22:28;;;;;;;2.30;0.80;;;;;;;;;;5086966;23;20071;-74
2022/01/21 13:25:02;;;;;;;3.05;1.05;;;;;;;;;;5005407;28;20045;-71
2022/01/21 13:27:30;;;;;;;2.35;1.02;;;;;;;;;;5012051;28;20046;-72
2022/01/21 13:30:10;;;;;;;2.42;1.13;;;;;;;;;;4994613;28;20060;-78
2022/01/21 13:32:37;;;;;;;1.02;0.88;;;;;;;;;;5027082;28;20120;-72
2022/01/21 13:35:10;;;;;;;3.40;1.98;;;;;;;;;;5001907;28;20041;-71
2022/01/21 13:38:03;;;;;;;1.30;1.05;;;;;;;;;;5024131;28;20084;-78
2022/01/21 13:40:34;;;;;;;1.15;1.00;;;;;;;;;;5020550;28;20053;-71
2022/01/21 13:43:09;;;;;;;4.00;1.17;;;;;;;;;;5029666;28;20036;-72
2022/01/21 13:45:40;;;;;;;3.70;1.00;;;;;;;;;;5036086;28;20044;-79
2022/01/21 13:48:10;;;;;;;1.88;0.82;;;;;;;;;;5017906;28;20050;-80
2022/01/21 13:50:45;;;;;;;2.42;1.17;;;;;;;;;;5034484;28;20040;-80
2022/01/21 13:53:14;;;;;;;3.58;1.65;;;;;;;;;;5014566;28;20544;-73
2022/01/21 13:55:43;;;;;;;2.05;1.40;;;;;;;;;;5035012;28;20049;-79
2022/01/21 13:58:10;;;;;;;3.17;1.65;;;;;;;;;;5033674;28;20388;-79
2022/01/21 14:00:40;;;;;;;2.90;1.38;;;;;;;;;;5015500;28;20068;-80
2022/01/21 14:03:12;;;;;;;4.13;1.08;;;;;;;;;;5032337;28;20041;-79
2022/01/21 14:05:44;;;;;;;2.38;1.40;;;;;;;;;;5033481;28;20037;-73
2022/01/21 14:08:27;;;;;;;1.65;1.00;;;;;;;;;;5032867;28;20034;-72
2022/01/21 14:11:08;;;;;;;437.60;31.30;;;;;;;;;;5033708;28;20508;-79
2022/01/21 14:13:46;;;;;;;11.43;1.75;;;;;;;;;;5018538;28;20045;-72
2022/01/21 14:16:16;;;;;;;1.98;1.23;;;;;;;;;;5033329;28;20136;-72
2022/01/21 14:18:44;;;;;;;1.95;1.10;;;;;;;;;;5033865;28;20034;-82
2022/01/21 14:21:17;;;;;;;4.05;1.30;;;;;;;;;;5016307;28;20041;-79
2022/01/21 14:23:47;;;;;;;3.15;1.20;;;;;;;;;;5034608;28;20033;-73
2022/01/21 14:26:17;;;;;;;4.38;1.10;;;;;;;;;;5001258;28;20456;-80
2022/01/21 14:28:58;;;;;;;2.28;1.10;;;;;;;;;;5016174;28;20095;-80
2022/01/21 14:31:34;;;;;;;2.45;1.10;;;;;;;;;;5035957;28;20121;-73
2022/01/21 14:34:04;;;;;;;4.85;1.13;;;;;;;;;;5032468;28;20507;-79
2022/01/21 14:36:33;;;;;;;0.95;0.77;;;;;;;;;;5015941;28;20046;-79
2022/01/21 14:39:19;;;;;;;3.03;1.23;;;;;;;;;;5031260;28;20044;-73
2022/01/21 14:41:54;;;;;;;5.40;1.30;;;;;;;;;;5029084;28;20036;-80
2022/01/21 14:44:35;;;;;;;5.25;1.00;;;;;;;;;;5034690;28;20045;-73
2022/01/21 14:47:19;;;;;;;1.63;1.00;;;;;;;;;;5031602;28;20037;-73
2022/01/21 14:49:55;;;;;;;1.40;1.30;;;;;;;;;;5034927;28;20072;-80
2022/01/21 14:52:43;;;;;;;2.25;1.40;;;;;;;;;;5013065;28;20049;-79
2022/01/21 14:55:25;;;;;;;4.13;1.63;;;;;;;;;;5032816;28;20133;-78
2022/01/21 14:57:56;;;;;;;3.55;1.98;;;;;;;;;;5015368;28;20477;-78
2022/01/21 15:00:24;;;;;;;2.08;1.88;;;;;;;;;;5016282;28;20056;-78
2022/01/21 15:03:04;;;;;;;10.20;2.40;;;;;;;;;;5015649;28;20077;-81
2022/01/21 15:05:32;;;;;;;6.85;2.63;;;;;;;;;;5011542;28;20061;-80
2022/01/21 15:08:00;;;;;;;3.25;2.05;;;;;;;;;;5014565;28;20053;-79
2022/01/21 15:10:37;;;;;;;5.03;2.20;;;;;;;;;;5025279;28;20038;-73
2022/01/21 15:16:27;;;;;;;3.97;2.05;;;;;;;;;;4950753;29;20138;-79
2022/01/21 15:18:56;;;;;;;3.72;2.15;;;;;;;;;;4936766;29;20538;-79
2022/01/21 15:21:26;;;;;;;3.63;1.88;;;;;;;;;;4920147;29;20039;-79
2022/01/21 15:23:55;;;;;;;3.50;1.77;;;;;;;;;;4921408;29;20078;-80
2022/01/21 15:26:42;;;;;;;3.15;2.20;;;;;;;;;;4929234;29;20046;-73
2022/01/21 15:29:10;;;;;;;1.67;1.58;;;;;;;;;;4937261;29;20158;-80
2022/01/21 15:31:38;;;;;;;3.85;1.70;;;;;;;;;;4937241;29;20154;-73
2022/01/21 15:34:08;;;;;;;4.00;1.33;;;;;;;;;;4937909;29;20059;-80
2022/01/21 15:36:41;;;;;;;1.27;1.10;;;;;;;;;;4950379;29;20059;-80
2022/01/21 15:39:09;;;;;;;4.45;1.40;;;;;;;;;;4952984;29;20046;-79
2022/01/21 15:41:36;;;;;;;5.85;1.77;;;;;;;;;;4951587;29;20061;-73
2022/01/21 15:44:04;;;;;;;5.40;1.85;;;;;;;;;;4948799;29;20051;-73
2022/01/21 15:46:31;;;;;;;3.90;1.33;;;;;;;;;;4936731;29;20067;-79
2022/01/21 15:49:00;;;;;;;5.57;1.50;;;;;;;;;;4953729;28;20054;-72
2022/01/21 15:51:28;;;;;;;2.40;1.15;;;;;;;;;;5025432;28;20393;-77
2022/01/21 15:53:56;;;;;;;7.68;2.67;;;;;;;;;;5032546;28;20038;-74
2022/01/21 15:56:23;;;;;;;7.00;1.30;;;;;;;;;;5032846;28;20048;-79
2022/01/21 15:59:12;;;;;;;5.43;1.45;;;;;;;;;;5014228;28;20052;-79
2022/01/21 16:01:40;;;;;;;1.60;1.50;;;;;;;;;;5009477;28;20044;-73
2022/01/21 16:04:08;;;;;;;4.35;2.53;;;;;;;;;;5011252;28;20454;-72
2022/01/21 16:06:36;;;;;;;1.58;1.38;;;;;;;;;;5029976;28;20141;-82
2022/01/21 16:09:05;;;;;;;4.00;1.50;;;;;;;;;;5014923;28;20496;-73
2022/01/21 16:11:33;;;;;;;5.80;1.70;;;;;;;;;;5029526;28;20488;-81